Time;durP1;ratioP1;P1;durP2;ratioP2;P2;SDS_P1;SDS_P2;PMS_P1;PMS_P2;Temp;Humidity;BMP_temperature;BMP_pressure;BME280_temperature;BME280_humidity;BME280_pressure;Samples;Min_cycle;Max_cycle;Signal;HPM_P1;HPM_P2
2021/12/03 00:00:19;;;;;;;20.77;6.80;;;;;;;0.12;67.79;97763.05;1761540;81;21104;-42
2021/12/03 00:02:44;;;;;;;17.07;6.62;;;;;;;0.07;67.74;97764.13;1760788;81;21030;-47
2021/12/03 00:05:11;;;;;;;30.10;9.63;;;;;;;0.15;67.83;97769.88;1761522;81;20990;-43
2021/12/03 00:07:40;;;;;;;18.02;6.95;;;;;;;0.16;67.92;97765.08;1761544;81;21578;-47
2021/12/03 00:10:07;;;;;;;17.40;7.03;;;;;;;0.23;67.63;97766.99;1761253;81;20959;-45
2021/12/03 00:12:33;;;;;;;22.22;7.12;;;;;;;0.28;67.50;97774.96;1761449;81;20995;-48
2021/12/03 00:14:59;;;;;;;18.73;8.13;;;;;;;0.30;67.49;97778.78;1761451;81;21035;-45
2021/12/03 00:17:25;;;;;;;17.25;7.70;;;;;;;0.23;67.47;97788.51;1761407;81;20987;-44
2021/12/03 00:19:51;;;;;;;18.92;7.78;;;;;;;0.34;67.68;97796.69;1761454;81;21591;-45
2021/12/03 00:22:16;;;;;;;14.95;6.00;;;;;;;0.35;67.86;97798.85;1761370;81;20979;-46
2021/12/03 00:24:42;;;;;;;16.82;6.70;;;;;;;0.33;67.61;97799.36;1761433;81;20999;-45
2021/12/03 00:27:08;;;;;;;20.50;7.33;;;;;;;0.38;67.68;97800.88;1761428;80;21003;-44
2021/12/03 00:29:34;;;;;;;14.18;6.37;;;;;;;0.43;67.65;97806.31;1761431;81;21039;-45
2021/12/03 00:32:00;;;;;;;19.45;7.33;;;;;;;0.46;67.69;97811.38;1761362;81;20995;-44
2021/12/03 00:34:27;;;;;;;19.82;8.23;;;;;;;0.54;67.67;97814.03;1761414;81;21065;-44
2021/12/03 00:36:55;;;;;;;19.60;7.80;;;;;;;0.52;67.66;97816.30;1761698;81;21003;-43
2021/12/03 00:39:22;;;;;;;17.85;6.35;;;;;;;0.40;67.91;97805.13;1761423;81;22152;-45
2021/12/03 00:41:53;;;;;;;14.18;6.00;;;;;;;0.48;67.98;97819.45;1761582;81;21026;-47
2021/12/03 00:44:18;;;;;;;20.37;7.45;;;;;;;0.55;67.94;97811.02;1760905;81;20987;-49
2021/12/03 00:46:43;;;;;;;;;;;;;;;0.45;68.19;97814.85;1763897;81;20978;-45
2021/12/03 00:49:09;;;;;;;18.10;5.95;;;;;;;0.51;68.06;97812.02;1751035;81;20461;-45
2021/12/03 00:51:34;;;;;;;15.35;5.55;;;;;;;0.52;68.04;97815.01;1748072;81;21004;-42
2021/12/03 00:54:00;;;;;;;16.55;5.85;;;;;;;0.52;68.06;97815.01;1748062;81;21000;-45
2021/12/03 00:56:26;;;;;;;18.45;5.65;;;;;;;0.53;68.21;97807.66;1748080;81;20996;-47
2021/12/03 00:58:52;;;;;;;14.85;5.33;;;;;;;0.57;68.02;97810.51;1748065;82;20988;-45
2021/12/03 01:01:18;;;;;;;13.58;5.53;;;;;;;0.46;68.43;97813.97;1748043;81;20971;-45
2021/12/03 01:03:44;;;;;;;15.10;5.80;;;;;;;0.51;68.57;97831.42;1748065;81;20960;-43
2021/12/03 01:06:10;;;;;;;12.80;5.35;;;;;;;0.48;68.36;97822.50;1748067;81;20991;-48
2021/12/03 01:08:36;;;;;;;14.05;5.33;;;;;;;0.51;68.36;97821.07;1746493;81;20982;-43
2021/12/03 01:11:05;;;;;;;11.48;5.40;;;;;;;0.55;68.43;97836.42;1746550;81;21007;-46
2021/12/03 01:13:31;;;;;;;13.72;5.53;;;;;;;0.60;68.33;97834.11;1746531;82;21038;-47
2021/12/03 01:15:57;;;;;;;18.10;5.75;;;;;;;0.61;68.38;97843.11;1746555;81;21046;-44
2021/12/03 01:18:23;;;;;;;13.90;5.60;;;;;;;0.62;68.70;97841.36;1746575;82;20991;-46
2021/12/03 01:20:49;;;;;;;10.40;4.87;;;;;;;0.63;68.70;97846.94;1746504;81;21015;-45
2021/12/03 01:23:15;;;;;;;17.05;5.75;;;;;;;0.64;68.45;97845.59;1746432;82;20988;-44
2021/12/03 01:25:41;;;;;;;17.35;5.67;;;;;;;0.63;68.50;97852.94;1746508;82;20992;-47
2021/12/03 01:28:08;;;;;;;11.45;5.40;;;;;;;0.56;68.95;97850.20;1746556;82;20991;-44
2021/12/03 01:30:35;;;;;;;13.13;5.72;;;;;;;0.61;68.90;97848.28;1746881;82;21493;-44
2021/12/03 01:33:05;;;;;;;12.55;5.47;;;;;;;0.61;68.80;97848.28;1746603;82;20971;-45
2021/12/03 01:35:31;;;;;;;13.98;4.92;;;;;;;0.66;68.79;97842.95;1746435;82;21007;-43
2021/12/03 01:37:57;;;;;;;14.43;5.78;;;;;;;0.54;69.39;97852.00;1746555;81;20980;-47
2021/12/03 01:40:26;;;;;;;11.90;5.45;;;;;;;0.64;69.03;97856.36;1746634;82;21535;-45
2021/12/03 01:42:53;;;;;;;13.48;5.95;;;;;;;0.64;69.04;97856.36;1746440;82;20987;-45
2021/12/03 01:45:24;;;;;;;15.50;5.70;;;;;;;0.63;68.88;97854.23;1746599;82;21500;-47
2021/12/03 01:47:53;;;;;;;14.23;4.45;;;;;;;0.58;69.40;97862.62;1746873;80;20991;-43
2021/12/03 01:50:27;;;;;;;12.85;5.08;;;;;;;0.64;69.24;97866.72;1754758;82;21441;-46
2021/12/03 01:52:54;;;;;;;12.80;5.10;;;;;;;0.67;68.94;97867.44;1754111;82;21015;-47
2021/12/03 01:55:22;;;;;;;12.70;4.60;;;;;;;0.66;69.29;97873.53;1754817;82;21039;-43
2021/12/03 01:57:48;;;;;;;12.82;4.78;;;;;;;0.63;69.47;97881.40;1754900;81;20956;-44
2021/12/03 02:00:20;;;;;;;14.87;5.87;;;;;;;0.66;69.24;97885.63;1754963;82;20972;-43
2021/12/03 02:02:48;;;;;;;11.50;4.50;;;;;;;0.56;70.17;97885.12;1747690;82;21034;-44
2021/12/03 02:05:14;;;;;;;13.05;5.42;;;;;;;0.61;69.68;97887.09;1754745;82;21586;-44
2021/12/03 02:07:40;;;;;;;14.18;5.85;;;;;;;0.49;70.04;97892.71;1754735;80;20991;-51
2021/12/03 02:10:07;;;;;;;10.50;5.53;;;;;;;0.45;70.76;97901.48;1754702;80;20994;-42
2021/12/03 02:12:33;;;;;;;11.15;4.87;;;;;;;0.52;70.26;97904.25;1754851;82;20995;-43
2021/12/03 02:14:59;;;;;;;13.38;5.53;;;;;;;0.53;70.00;97901.61;1754728;82;20991;-43
2021/12/03 02:17:25;;;;;;;13.20;5.00;;;;;;;0.58;70.34;97907.89;1754739;82;21124;-46
2021/12/03 02:19:51;;;;;;;12.18;5.60;;;;;;;0.67;70.35;97905.41;1754719;81;20951;-43
2021/12/03 02:22:17;;;;;;;13.08;5.03;;;;;;;0.66;70.62;97911.05;1754684;81;21458;-45
2021/12/03 02:24:43;;;;;;;12.50;5.05;;;;;;;0.68;70.67;97911.83;1754824;81;20960;-47
2021/12/03 02:27:09;;;;;;;10.32;4.72;;;;;;;0.70;70.53;97922.13;1754954;82;21543;-44
2021/12/03 02:29:35;;;;;;;11.70;4.90;;;;;;;0.66;71.09;97923.98;1754700;82;21014;-48
2021/12/03 02:32:01;;;;;;;11.38;5.37;;;;;;;0.64;70.76;97924.50;1754694;82;20987;-45
2021/12/03 02:34:27;;;;;;;11.18;5.40;;;;;;;0.62;71.15;97928.89;1754996;81;20991;-46
2021/12/03 02:36:53;;;;;;;14.65;6.12;;;;;;;0.59;71.31;97932.88;1754739;82;20982;-43
2021/12/03 02:39:19;;;;;;;9.70;4.65;;;;;;;0.56;71.72;97932.97;1754779;82;21473;-46
2021/12/03 02:41:45;;;;;;;10.63;5.20;;;;;;;0.59;72.43;97943.22;1741671;79;21058;-44
2021/12/03 02:44:13;;;;;;;12.23;4.80;;;;;;;0.62;72.30;97937.08;1748750;81;21063;-45
2021/12/03 02:46:39;;;;;;;13.08;5.03;;;;;;;0.60;72.14;97941.04;1748521;82;21003;-45
2021/12/03 02:49:06;;;;;;;11.05;5.00;;;;;;;0.64;71.95;97945.19;1748612;81;21479;-46
2021/12/03 02:51:32;;;;;;;8.93;4.62;;;;;;;0.55;72.45;97948.13;1748733;81;20979;-43
2021/12/03 02:54:00;;;;;;;11.08;4.70;;;;;;;0.55;72.23;97947.66;1748672;82;21460;-44
2021/12/03 02:56:26;;;;;;;8.98;4.70;;;;;;;0.52;73.07;97955.52;1748667;81;20959;-44
2021/12/03 02:58:51;;;;;;;9.03;4.40;;;;;;;0.59;72.36;97962.62;1748571;81;21050;-44
2021/12/03 03:01:17;;;;;;;9.13;4.53;;;;;;;0.60;73.02;97966.91;1748776;81;21011;-44
2021/12/03 03:03:43;;;;;;;9.13;4.40;;;;;;;0.60;73.11;97968.20;1748560;81;20959;-44
2021/12/03 03:06:09;;;;;;;8.38;4.35;;;;;;;0.60;73.11;97968.20;1748591;81;20959;-42
2021/12/03 03:08:36;;;;;;;11.55;4.92;;;;;;;0.65;73.08;97978.37;1748557;81;20994;-43
2021/12/03 03:11:05;;;;;;;13.10;4.90;;;;;;;0.64;73.26;97984.00;1748688;81;20982;-43
2021/12/03 03:13:30;;;;;;;8.98;4.95;;;;;;;0.62;72.94;97992.70;1748890;80;20943;-45
2021/12/03 03:15:57;;;;;;;10.32;5.65;;;;;;;0.71;72.57;97988.05;1748581;81;20971;-44
2021/12/03 03:18:27;;;;;;;12.47;5.85;;;;;;;0.62;73.73;98000.03;1748581;81;21456;-43
2021/12/03 03:20:56;;;;;;;26.20;8.78;;;;;;;0.57;74.36;98004.52;1748602;81;20995;-46
2021/12/03 03:23:22;;;;;;;22.98;7.70;;;;;;;0.65;73.09;98003.78;1748515;81;21002;-47
2021/12/03 03:25:50;;;;;;;97.88;25.40;;;;;;;0.63;73.72;98011.22;1748576;82;20987;-43
2021/12/03 03:28:16;;;;;;;;;;;;;;;0.69;73.51;98008.39;1751193;81;21471;-47
2021/12/03 03:30:46;;;;;;;81.92;20.77;;;;;;;0.70;73.67;98008.34;1748727;81;20519;-46
2021/12/03 03:33:13;;;;;;;57.48;13.40;;;;;;;0.70;73.81;98013.52;1748618;81;21413;-45
2021/12/03 03:35:39;;;;;;;76.72;19.37;;;;;;;0.70;73.16;98012.23;1748710;81;20982;-46
2021/12/03 03:38:06;;;;;;;78.85;19.70;;;;;;;0.76;72.69;98024.97;1748531;81;21030;-46
2021/12/03 03:40:33;;;;;;;30.43;9.08;;;;;;;0.73;72.74;98016.01;1748716;81;20963;-45
2021/12/03 03:43:01;;;;;;;66.07;16.70;;;;;;;0.65;72.97;98019.77;1748777;80;21011;-44
2021/12/03 03:45:29;;;;;;;98.07;22.35;;;;;;;0.73;72.91;98019.05;1748640;81;20994;-45
2021/12/03 03:47:55;;;;;;;123.95;27.70;;;;;;;0.74;72.64;98028.03;1748737;81;20983;-46
2021/12/03 03:50:23;;;;;;;54.20;13.70;;;;;;;0.78;72.44;98033.94;1748905;82;20964;-46
2021/12/03 03:52:51;;;;;;;;;;;;;;;0.70;72.70;98026.92;1751332;81;21648;-45
2021/12/03 03:55:18;;;;;;;99.95;19.95;;;;;;;0.71;72.60;98043.69;1748750;82;20462;-47
2021/12/03 03:57:46;;;;;;;33.73;8.15;;;;;;;0.71;72.38;98039.80;1748854;82;21018;-44
2021/12/03 04:00:17;;;;;;;50.25;12.78;;;;;;;0.69;72.22;98046.78;1748832;81;21029;-46
2021/12/03 04:02:44;;;;;;;60.83;13.62;;;;;;;0.64;72.24;98044.80;1748699;81;20955;-47
2021/12/03 04:05:10;;;;;;;48.57;12.10;;;;;;;0.63;72.09;98050.86;1749024;82;21464;-45
2021/12/03 04:07:37;;;;;;;45.83;9.13;;;;;;;0.62;71.70;98052.20;1749237;82;20951;-44
2021/12/03 04:10:05;;;;;;;53.92;10.82;;;;;;;0.60;71.08;98056.16;1748823;81;20983;-43
2021/12/03 04:12:32;;;;;;;18.20;5.78;;;;;;;0.59;70.65;98058.34;1748865;81;21018;-45
2021/12/03 04:14:58;;;;;;;56.28;13.45;;;;;;;0.54;70.60;98068.00;1748854;82;20975;-44
2021/12/03 04:17:24;;;;;;;68.95;15.68;;;;;;;0.54;70.49;98055.90;1748761;81;21413;-47
2021/12/03 04:19:50;;;;;;;97.20;19.20;;;;;;;0.49;70.62;98059.12;1748961;81;21420;-45
2021/12/03 04:22:18;;;;;;;34.78;9.70;;;;;;;0.52;70.80;98062.88;1748632;81;20979;-46
2021/12/03 04:24:44;;;;;;;9.63;4.95;;;;;;;0.50;70.84;98083.23;1748695;81;20987;-45
2021/12/03 04:27:10;;;;;;;10.58;5.53;;;;;;;0.51;70.93;98073.27;1748774;81;21468;-44
2021/12/03 04:29:36;;;;;;;7.58;4.17;;;;;;;0.53;71.17;98079.26;1748715;81;20991;-44
2021/12/03 04:32:03;;;;;;;9.30;4.12;;;;;;;0.46;71.17;98092.00;1748671;81;20953;-45
2021/12/03 04:34:29;;;;;;;9.87;4.53;;;;;;;0.51;71.29;98095.25;1748972;81;20994;-45
2021/12/03 04:36:54;;;;;;;7.55;4.58;;;;;;;0.52;71.48;98096.95;1748698;81;21022;-44
2021/12/03 04:39:20;;;;;;;11.08;5.25;;;;;;;0.48;71.68;98097.96;1748814;81;20971;-45
2021/12/03 04:41:46;;;;;;;8.88;4.70;;;;;;;0.51;71.88;98091.38;1750109;81;21459;-43
2021/12/03 04:44:12;;;;;;;8.33;4.47;;;;;;;0.47;71.95;98096.27;1755312;80;21448;-47
2021/12/03 04:46:38;;;;;;;8.45;4.60;;;;;;;0.47;71.95;98096.27;1748658;81;21518;-46
2021/12/03 04:49:04;;;;;;;8.93;4.00;;;;;;;0.42;72.14;98100.73;1743768;81;21532;-45
2021/12/03 04:51:29;;;;;;;8.50;4.05;;;;;;;0.49;71.77;98099.21;1743665;81;20987;-45
2021/12/03 04:53:55;;;;;;;7.62;3.98;;;;;;;0.51;71.98;98100.00;1743685;81;20996;-45
2021/12/03 04:56:21;;;;;;;6.00;3.25;;;;;;;0.46;71.98;98099.30;1743662;81;20970;-45
2021/12/03 04:58:47;;;;;;;5.08;3.42;;;;;;;0.59;71.56;98105.36;1743659;81;21018;-46
2021/12/03 05:01:13;;;;;;;9.08;3.52;;;;;;;0.54;71.34;98120.56;1743569;81;21057;-45
2021/12/03 05:03:39;;;;;;;7.12;3.08;;;;;;;0.47;71.32;98111.78;1743609;81;20990;-45
2021/12/03 05:06:08;;;;;;;6.50;3.62;;;;;;;0.51;71.23;98120.69;1743657;81;21397;-47
2021/12/03 05:08:33;;;;;;;5.28;3.25;;;;;;;0.41;71.39;98115.42;1743911;80;20998;-46
2021/12/03 05:10:58;;;;;;;6.28;3.47;;;;;;;0.44;71.46;98110.58;1743646;81;21021;-44
2021/12/03 05:13:32;;;;;;;5.22;3.30;;;;;;;0.43;71.53;98116.66;1743618;82;21026;-47
2021/12/03 05:15:59;;;;;;;6.55;3.83;;;;;;;0.31;71.85;98115.31;1743601;81;20963;-46
2021/12/03 05:18:28;;;;;;;10.35;4.15;;;;;;;0.24;72.20;98118.98;1743979;81;21489;-43
2021/12/03 05:20:57;;;;;;;6.37;4.00;;;;;;;0.19;72.71;98116.11;1743689;82;20975;-44
2021/12/03 05:23:25;;;;;;;8.35;3.70;;;;;;;0.14;73.29;98115.87;1743719;81;21022;-43
2021/12/03 05:25:52;;;;;;;4.30;3.40;;;;;;;0.14;73.16;98119.28;1743634;81;20982;-45
2021/12/03 05:28:18;;;;;;;9.88;4.33;;;;;;;0.12;73.64;98125.41;1743705;81;20990;-46
2021/12/03 05:30:44;;;;;;;7.58;3.77;;;;;;;0.04;74.25;98126.09;1743697;81;21452;-45
2021/12/03 05:33:10;;;;;;;11.90;4.75;;;;;;;0.06;73.97;98126.91;1743742;81;21470;-46
2021/12/03 05:35:36;;;;;;;8.35;5.28;;;;;;;-0.03;74.31;98131.46;1743650;82;20990;-45
2021/12/03 05:38:04;;;;;;;10.82;4.90;;;;;;;0.02;74.02;98136.50;1743884;81;21018;-45
2021/12/03 05:40:31;;;;;;;11.95;4.95;;;;;;;0.00;74.31;98131.83;1743846;81;20979;-46
2021/12/03 05:42:58;;;;;;;11.53;4.90;;;;;;;-0.04;73.95;98142.71;1746180;80;21069;-44
2021/12/03 05:45:30;;;;;;;11.68;4.50;;;;;;;-0.01;73.55;98140.01;1724551;83;21003;-46
2021/12/03 05:47:57;;;;;;;9.53;5.15;;;;;;;-0.10;73.99;98141.59;1743091;81;20983;-46
2021/12/03 05:50:24;;;;;;;13.13;4.62;;;;;;;-0.05;73.85;98153.09;1743243;81;21014;-44
2021/12/03 05:52:51;;;;;;;9.25;5.10;;;;;;;-0.15;74.78;98152.50;1712191;83;21016;-45
2021/12/03 05:55:18;;;;;;;10.23;4.72;;;;;;;-0.15;74.68;98152.95;1743137;82;21013;-47
2021/12/03 05:57:45;;;;;;;9.40;4.90;;;;;;;-0.07;74.36;98165.22;1743380;82;21539;-45
2021/12/03 06:00:22;;;;;;;8.25;4.50;;;;;;;-0.04;74.21;98165.97;1743065;82;21031;-46
2021/12/03 06:02:48;;;;;;;6.62;3.80;;;;;;;0.02;74.00;98164.94;1741935;82;21022;-44
2021/12/03 06:05:14;;;;;;;8.80;4.05;;;;;;;0.03;74.21;98179.53;1743138;81;21567;-45
2021/12/03 06:07:39;;;;;;;8.33;3.75;;;;;;;0.01;74.37;98176.61;1712053;82;21485;-46
2021/12/03 06:10:06;;;;;;;8.00;3.92;;;;;;;0.07;73.85;98175.95;1743026;82;20975;-44
2021/12/03 06:12:31;;;;;;;9.55;3.90;;;;;;;0.07;74.07;98191.91;1743079;82;21472;-44
2021/12/03 06:14:57;;;;;;;5.28;4.08;;;;;;;0.09;73.92;98191.42;1743157;82;20976;-46
2021/12/03 06:17:23;;;;;;;6.42;4.20;;;;;;;0.12;73.88;98193.92;1743120;82;20995;-46
2021/12/03 06:19:50;;;;;;;11.05;4.30;;;;;;;0.17;73.56;98190.75;1743048;82;20983;-45
2021/12/03 06:22:15;;;;;;;8.88;4.08;;;;;;;0.19;73.49;98198.02;1711901;84;21015;-43
2021/12/03 06:24:42;;;;;;;9.45;4.65;;;;;;;0.07;73.77;98197.09;1743025;82;20971;-46
2021/12/03 06:27:08;;;;;;;13.05;4.50;;;;;;;0.13;73.36;98197.76;1743031;82;21033;-44
2021/12/03 06:29:34;;;;;;;10.13;5.60;;;;;;;0.07;73.12;98198.38;1743037;82;21008;-46
2021/12/03 06:32:00;;;;;;;7.12;4.40;;;;;;;-0.08;73.42;98204.41;1743283;82;20983;-44
2021/12/03 06:34:26;;;;;;;10.13;6.00;;;;;;;-0.02;73.46;98208.55;1748619;81;21499;-44
2021/12/03 06:36:52;;;;;;;15.13;7.00;;;;;;;-0.03;73.45;98219.79;1724529;83;21000;-43
2021/12/03 06:39:18;;;;;;;9.20;4.40;;;;;;;-0.07;73.15;98216.91;1743107;81;20967;-43
2021/12/03 06:41:44;;;;;;;8.38;4.53;;;;;;;-0.08;73.35;98226.38;1748588;81;20959;-46
2021/12/03 06:44:09;;;;;;;8.70;4.85;;;;;;;-0.16;73.30;98219.30;1750779;81;21015;-42
2021/12/03 06:46:36;;;;;;;10.55;5.50;;;;;;;-0.15;73.37;98221.44;1764689;81;20994;-46
2021/12/03 06:49:03;;;;;;;12.37;5.40;;;;;;;-0.22;73.61;98221.62;1791200;80;20967;-45
2021/12/03 06:51:31;;;;;;;11.28;5.28;;;;;;;-0.23;73.34;98228.13;1791131;80;21429;-44
2021/12/03 06:54:03;;;;;;;16.12;5.72;;;;;;;-0.33;73.62;98225.39;1791078;80;20974;-45
2021/12/03 06:56:48;;;;;;;6.58;4.40;;;;;;;-0.32;73.96;98237.44;1790549;80;21007;-46
2021/12/03 06:58:55;;;;;;;11.65;5.10;;;;;;;-0.34;73.94;98226.30;1785963;80;21010;-43
2021/12/03 07:01:21;;;;;;;8.08;4.78;;;;;;;-0.35;73.81;98233.63;1790939;79;20983;-45
2021/12/03 07:03:46;;;;;;;4.87;3.83;;;;;;;-0.37;73.85;98236.70;1790866;80;20999;-44
2021/12/03 07:06:12;;;;;;;9.38;4.50;;;;;;;-0.40;73.89;98232.45;1790893;80;21158;-44
2021/12/03 07:08:38;;;;;;;9.58;4.72;;;;;;;-0.38;74.21;98239.75;1790909;80;21026;-45
2021/12/03 07:11:03;;;;;;;10.05;5.08;;;;;;;-0.34;73.83;98245.67;1790897;80;21002;-46
2021/12/03 07:13:31;;;;;;;9.15;4.37;;;;;;;-0.39;74.10;98247.91;1791100;79;20999;-44
2021/12/03 07:15:58;;;;;;;10.85;4.25;;;;;;;-0.46;74.36;98245.09;1736230;80;20998;-46
2021/12/03 07:18:24;;;;;;;;;;;;;;;-0.46;74.26;98250.27;1793721;80;21002;-44
2021/12/03 07:20:50;;;;;;;12.20;4.42;;;;;;;-0.51;74.50;98250.86;1791026;79;20449;-45
2021/12/03 07:23:16;;;;;;;6.72;3.87;;;;;;;-0.50;74.10;98261.58;1791075;80;20999;-43
2021/12/03 07:25:42;;;;;;;11.00;4.40;;;;;;;-0.56;74.60;98257.88;1760556;80;21437;-45
2021/12/03 07:28:08;;;;;;;13.13;5.65;;;;;;;-0.53;74.78;98266.81;1791082;80;20967;-44
2021/12/03 07:30:33;;;;;;;10.65;4.53;;;;;;;-0.56;75.01;98269.92;1791062;80;20998;-44
2021/12/03 07:32:59;;;;;;;11.33;4.85;;;;;;;-0.50;74.92;98282.23;1791083;79;20995;-44
2021/12/03 07:35:25;;;;;;;11.45;4.60;;;;;;;-0.52;75.09;98285.31;1791119;79;20987;-45
2021/12/03 07:37:51;;;;;;;10.23;4.95;;;;;;;-0.50;75.05;98284.82;1791187;80;20982;-46
2021/12/03 07:40:17;;;;;;;9.00;4.80;;;;;;;-0.46;74.79;98286.87;1791121;79;21503;-46
2021/12/03 07:42:43;;;;;;;15.25;4.85;;;;;;;-0.44;74.98;98293.72;1790838;80;21011;-46
2021/12/03 07:45:13;;;;;;;9.75;4.58;;;;;;;-0.43;74.93;98301.02;1790938;80;20963;-45
2021/12/03 07:47:39;;;;;;;15.95;4.70;;;;;;;-0.48;74.90;98310.16;1790822;79;21033;-45
2021/12/03 07:50:08;;;;;;;17.05;5.83;;;;;;;-0.41;74.85;98297.94;1790800;79;21417;-48
2021/12/03 07:52:35;;;;;;;11.63;5.03;;;;;;;-0.45;74.92;98301.05;1790808;79;21023;-48
2021/12/03 07:55:03;;;;;;;12.30;5.30;;;;;;;-0.44;74.74;98303.17;1790758;80;20998;-46
2021/12/03 07:57:28;;;;;;;10.03;4.92;;;;;;;-0.38;74.67;98297.87;1790814;79;21524;-46
2021/12/03 07:59:54;;;;;;;8.95;4.72;;;;;;;-0.29;74.54;98304.49;1790889;79;21014;-44
2021/12/03 08:02:20;;;;;;;9.95;5.00;;;;;;;-0.29;74.25;98294.16;1790683;80;20983;-46
2021/12/03 08:04:46;;;;;;;8.18;4.80;;;;;;;-0.38;74.28;98293.99;1790794;80;21901;-46
2021/12/03 08:07:12;;;;;;;12.10;4.58;;;;;;;-0.36;74.38;98297.80;1790838;79;20979;-44
2021/12/03 08:09:38;;;;;;;17.85;5.58;;;;;;;-0.35;74.20;98299.50;1790780;79;21006;-44
2021/12/03 08:12:06;;;;;;;7.53;4.22;;;;;;;-0.40;74.35;98301.78;1790764;79;20979;-44
2021/12/03 08:14:32;;;;;;;10.25;4.28;;;;;;;-0.34;74.10;98296.05;1790779;79;21179;-47
2021/12/03 08:16:57;;;;;;;8.20;4.25;;;;;;;-0.38;74.27;98306.91;1790728;79;20986;-45
2021/12/03 08:19:23;;;;;;;8.68;4.90;;;;;;;-0.43;74.39;98299.72;1790894;79;20956;-46
2021/12/03 08:21:49;;;;;;;11.63;4.95;;;;;;;-0.43;74.42;98301.84;1790845;79;21453;-47
2021/12/03 08:24:15;;;;;;;9.30;4.12;;;;;;;-0.43;74.44;98305.72;1790881;79;21481;-44
2021/12/03 08:26:41;;;;;;;8.98;4.33;;;;;;;-0.46;74.45;98308.37;1790839;80;21511;-46
2021/12/03 08:29:07;;;;;;;11.40;4.55;;;;;;;-0.39;74.22;98313.78;1790776;79;21014;-45
2021/12/03 08:31:33;;;;;;;16.02;4.45;;;;;;;-0.36;74.18;98315.87;1743713;80;21014;-45
2021/12/03 08:33:59;;;;;;;8.33;3.83;;;;;;;-0.30;74.18;98302.81;1790770;79;20990;-45
2021/12/03 08:36:25;;;;;;;11.18;4.12;;;;;;;-0.33;73.93;98308.89;1790885;79;20990;-45
2021/12/03 08:38:51;;;;;;;7.83;4.10;;;;;;;-0.35;73.92;98313.72;1790785;79;21027;-45
2021/12/03 08:41:18;;;;;;;10.72;3.87;;;;;;;-0.21;73.82;98312.89;1790801;79;21002;-47
2021/12/03 08:43:47;;;;;;;12.35;4.70;;;;;;;-0.05;73.64;98308.16;1789404;79;21461;-45
2021/12/03 08:46:20;;;;;;;10.90;3.83;;;;;;;0.13;73.24;98302.91;1745147;81;20979;-45
2021/12/03 08:48:46;;;;;;;12.45;4.65;;;;;;;0.31;72.19;98314.43;1753107;81;21015;-46
2021/12/03 08:56:10;;;;;;;7.47;4.20;;;;;;;0.73;70.89;98305.83;1745619;81;20947;-46
2021/12/03 08:58:35;;;;;;;12.77;4.50;;;;;;;0.78;70.96;98310.01;1753602;82;21640;-46
2021/12/03 09:01:01;;;;;;;10.20;4.28;;;;;;;0.78;70.73;98299.66;1714385;82;21032;-47
2021/12/03 09:03:27;;;;;;;10.23;3.70;;;;;;;0.72;70.39;98310.59;1753337;82;21527;-48
2021/12/03 09:05:53;;;;;;;8.70;3.37;;;;;;;0.63;70.35;98304.87;1714335;83;21492;-45
2021/12/03 09:08:19;;;;;;;8.68;3.62;;;;;;;0.47;69.96;98304.03;1753372;82;20998;-44
2021/12/03 09:10:44;;;;;;;12.50;3.70;;;;;;;0.54;70.52;98308.58;1714222;84;21011;-44
2021/12/03 09:13:11;;;;;;;10.53;3.60;;;;;;;0.60;70.31;98301.94;1753336;80;21038;-46
2021/12/03 09:15:45;;;;;;;7.65;3.40;;;;;;;0.56;70.07;98289.97;1714338;84;21042;-45
2021/12/03 09:18:29;;;;;;;7.12;3.20;;;;;;;0.50;69.65;98294.05;1752432;82;21005;-48
2021/12/03 09:20:57;;;;;;;10.85;3.75;;;;;;;0.43;69.50;98292.55;1754014;81;20994;-45
2021/12/03 09:25:52;;;;;;;11.85;4.53;;;;;;;0.52;69.93;98302.61;1715048;83;21006;-48
2021/12/03 09:28:13;;;;;;;13.58;5.00;;;;;;;0.52;69.86;98300.02;1752205;82;20966;-47
2021/12/03 09:30:43;;;;;;;19.05;6.03;;;;;;;0.54;69.83;98286.59;1753331;81;20983;-45
2021/12/03 09:33:13;;;;;;;13.65;4.80;;;;;;;0.59;69.82;98298.94;1714156;82;21477;-45
2021/12/03 09:35:45;;;;;;;20.37;5.78;;;;;;;0.58;69.65;98301.11;1753022;80;21444;-50
2021/12/03 09:38:05;;;;;;;26.80;7.58;;;;;;;0.58;69.76;98301.11;1749599;80;20970;-46
2021/12/03 09:40:34;;;;;;;18.98;6.75;;;;;;;0.59;69.54;98297.65;1748517;81;21472;-46
2021/12/03 09:42:59;;;;;;;20.32;6.22;;;;;;;0.60;69.50;98300.65;1748725;80;20999;-47
2021/12/03 09:45:24;;;;;;;28.77;7.17;;;;;;;0.53;69.31;98294.80;1714245;84;21016;-46
2021/12/03 09:47:52;;;;;;;23.60;6.58;;;;;;;0.53;69.41;98296.55;1753340;80;20998;-46
2021/12/03 09:50:17;;;;;;;18.98;6.40;;;;;;;0.65;69.66;98285.80;1714420;84;21596;-50
2021/12/03 09:52:57;;;;;;;14.93;4.80;;;;;;;0.66;69.40;98287.51;1753337;80;21026;-46
2021/12/03 09:55:13;;;;;;;;;;;;;;;0.73;69.23;98289.01;1719046;82;21036;-44
2021/12/03 09:57:44;;;;;;;13.30;4.80;;;;;;;0.70;69.08;98298.16;1753284;80;20563;-45
2021/12/03 10:03:04;;;;;;;12.60;4.30;;;;;;;0.81;68.93;98288.76;1745355;82;21035;-44
2021/12/03 10:13:58;;;;;;;14.97;4.80;;;;;;;0.84;68.50;98294.30;1745729;81;21051;-47
2021/12/03 10:16:40;;;;;;;12.10;4.50;;;;;;;0.90;68.86;98299.27;1754546;80;20994;-46
2021/12/03 10:18:58;;;;;;;12.23;4.10;;;;;;;0.92;68.77;98304.78;1718706;82;20964;-48
2021/12/03 10:38:43;;;;;;;6.17;3.30;;;;;;;1.40;67.65;98285.11;1784210;80;20548;-45
2021/12/03 10:51:52;;;;;;;11.65;4.30;;;;;;;1.31;67.20;98281.50;1787430;80;20955;-48
2021/12/03 10:55:23;;;;;;;12.63;4.27;;;;;;;1.42;67.55;98280.72;1767973;80;20935;-46
2021/12/03 10:57:13;;;;;;;11.48;4.17;;;;;;;1.48;67.18;98286.97;1770164;80;21477;-49
2021/12/03 12:27:36;;;;;;;9.48;3.95;;;;;;;2.62;64.37;98299.67;1700410;83;20939;-47
2021/12/03 13:04:12;;;;;;;12.43;3.72;;;;;;;3.30;63.31;98322.92;1747500;80;21509;-47
2021/12/03 13:11:32;;;;;;;11.45;3.33;;;;;;;3.17;62.86;98326.48;1747546;81;21483;-48
2021/12/03 14:00:08;;;;;;;13.80;4.95;;;;;;;2.50;64.70;98381.88;1736397;82;21015;-46
2021/12/03 14:08:15;;;;;;;12.20;5.15;;;;;;;2.54;65.62;98392.53;1737319;82;21043;-47
2021/12/03 14:22:03;;;;;;;14.15;4.78;;;;;;;2.68;64.70;98411.05;1774407;79;20967;-43
2021/12/03 14:40:35;;;;;;;14.07;4.65;;;;;;;2.50;64.09;98428.59;1782689;79;20914;-44
2021/12/03 14:45:43;;;;;;;13.88;4.92;;;;;;;2.45;64.12;98426.16;1795699;79;21116;-46
2021/12/03 14:48:45;;;;;;;14.33;4.22;;;;;;;2.44;64.19;98428.83;1785792;79;21297;-48
2021/12/03 14:55:27;;;;;;;11.70;4.65;;;;;;;2.44;64.42;98426.23;1780762;79;21087;-49
2021/12/03 14:58:02;;;;;;;13.18;4.90;;;;;;;2.39;64.25;98438.06;1788616;79;21128;-48
2021/12/03 15:03:41;;;;;;;11.93;4.30;;;;;;;2.43;64.69;98437.50;1787376;79;21488;-49
2021/12/03 15:06:08;;;;;;;12.33;4.50;;;;;;;2.40;64.69;98446.26;1779350;79;20973;-50
2021/12/03 15:08:36;;;;;;;15.23;4.00;;;;;;;2.41;64.84;98444.04;1788461;79;20935;-50
2021/12/03 15:34:51;;;;;;;13.62;5.28;;;;;;;2.06;65.01;98469.47;1749117;81;20963;-49
2021/12/03 15:37:43;;;;;;;19.12;5.33;;;;;;;2.04;65.13;98463.95;1750358;81;21472;-47
2021/12/03 15:40:19;;;;;;;15.05;5.00;;;;;;;1.90;65.15;98470.42;1745520;81;21068;-48
2021/12/03 15:58:47;;;;;;;12.82;5.42;;;;;;;1.75;65.47;98489.09;1735859;81;20988;-48
2021/12/03 16:04:14;;;;;;;17.52;5.45;;;;;;;1.69;65.60;98492.73;1729509;81;21615;-50
2021/12/03 16:46:21;;;;;;;20.32;7.53;;;;;;;1.26;65.75;98527.73;1750087;81;21106;-46
2021/12/03 16:51:13;;;;;;;21.85;8.38;;;;;;;1.18;66.22;98532.73;1709516;84;21072;-46
2021/12/03 16:53:34;;;;;;;20.90;8.45;;;;;;;1.17;66.13;98538.83;1710507;84;21756;-46
2021/12/03 16:56:12;;;;;;;19.95;8.18;;;;;;;1.10;66.34;98538.98;1710331;84;21083;-46
2021/12/03 16:58:39;;;;;;;20.57;8.63;;;;;;;1.05;66.57;98540.85;1700649;84;21093;-47
2021/12/03 17:03:52;;;;;;;16.95;7.50;;;;;;;0.98;66.55;98535.45;1697524;84;21078;-51
2021/12/03 17:30:39;;;;;;;26.90;10.58;;;;;;;0.66;67.08;98533.33;1796019;79;20978;-50
2021/12/03 17:46:34;;;;;;;19.12;8.48;;;;;;;0.57;66.98;98536.16;1791821;79;21069;-48
2021/12/03 17:49:15;;;;;;;;;;;;;;;0.49;67.02;98546.73;1789695;79;21019;-50
2021/12/03 17:56:34;;;;;;;20.27;8.80;;;;;;;0.51;67.00;98559.17;1790019;79;20991;-51
2021/12/03 17:59:11;;;;;;;18.42;8.45;;;;;;;0.46;66.84;98558.89;1790055;80;21034;-47
2021/12/03 18:01:47;;;;;;;;;;;;;;;0.41;66.75;98556.86;1790920;80;21090;-45
2021/12/03 18:04:13;;;;;;;21.77;8.73;;;;;;;0.33;66.63;98542.84;1786708;80;20482;-45
2021/12/03 18:06:57;;;;;;;23.10;8.90;;;;;;;0.32;66.77;98548.44;1788646;80;21051;-49